Terminal Aerodrome Forecast
Issued by NWS

Home | Current Version | Previous Version | Text Only | Print | Product List | Glossary On
Versions: 1 2 3 4 5 6 7 8 9 10 11 12 13 14 15 16 17 18 19 20 21 22 23 24 25 26
855
FTUS41 KBGM 240859 AAA
TAFITH
TAF AMD
KITH 240859Z 2409/2506 34008KT 1SM -SN BR OVC005
     FM241400 33008KT 2SM -SN BR OVC008
     FM242100 32010KT P6SM -SN OVC008
     FM250000 32008KT P6SM -SN OVC015=

USA.gov is the U.S. government's official web portal to all federal, state and local government web resources and services.